createdAt,value
2024-02-16T00:01:15.008Z,17.62
2024-02-16T00:03:41.456Z,17.47
2024-02-16T00:06:08.496Z,17.54
2024-02-16T00:08:35.726Z,17.64
2024-02-16T00:11:02.177Z,17.53
2024-02-16T00:13:28.514Z,17.50
2024-02-16T00:15:54.884Z,17.44
2024-02-16T00:18:21.391Z,17.31
2024-02-16T00:20:47.979Z,17.31
2024-02-16T00:23:14.349Z,17.14
2024-02-16T00:25:41.717Z,17.25
2024-02-16T00:28:09.306Z,17.21
2024-02-16T00:30:35.892Z,17.25
2024-02-16T00:33:02.482Z,17.16
2024-02-16T00:35:29.414Z,17.28
2024-02-16T00:37:55.777Z,17.10
2024-02-16T00:40:22.995Z,17.27
2024-02-16T00:42:49.333Z,17.20
2024-02-16T00:45:15.685Z,17.02
2024-02-16T00:47:42.075Z,17.15
2024-02-16T00:50:10.438Z,16.90
2024-02-16T00:52:36.918Z,17.05
2024-02-16T00:55:05.112Z,16.93
2024-02-16T00:57:35.590Z,17.05
2024-02-16T01:00:02.257Z,16.93
2024-02-16T01:02:30.295Z,17.29
2024-02-16T01:05:02.957Z,17.11
2024-02-16T01:07:30.876Z,17.04
2024-02-16T01:09:59.113Z,16.87
2024-02-16T01:12:25.686Z,17.00
2024-02-16T01:14:52.186Z,16.89
2024-02-16T01:17:18.645Z,16.85
2024-02-16T01:19:45.051Z,16.79
2024-02-16T01:22:11.413Z,16.93
2024-02-16T01:24:38.215Z,16.98
2024-02-16T01:27:04.739Z,16.92
2024-02-16T01:29:31.154Z,17.18
2024-02-16T01:31:57.563Z,17.04
2024-02-16T01:34:24.067Z,16.73
2024-02-16T01:36:50.495Z,16.75
2024-02-16T01:39:16.927Z,16.87
2024-02-16T01:41:43.301Z,16.59
2024-02-16T01:44:09.662Z,16.89
2024-02-16T01:46:36.617Z,16.53
2024-02-16T01:49:03.514Z,16.38
2024-02-16T01:51:31.054Z,16.63
2024-02-16T01:53:58.927Z,16.73
2024-02-16T01:56:29.199Z,16.80
2024-02-16T01:58:56.668Z,16.64
2024-02-16T02:01:23.986Z,16.80
2024-02-16T02:03:51.054Z,16.59
2024-02-16T02:06:21.392Z,16.41
2024-02-16T02:08:48.219Z,16.23
2024-02-16T02:11:14.665Z,16.40
2024-02-16T02:13:42.535Z,16.00
2024-02-16T02:16:11.398Z,15.53
2024-02-16T02:18:38.831Z,16.09
2024-02-16T02:21:05.917Z,16.20
2024-02-16T02:23:32.346Z,16.25
2024-02-16T02:25:58.689Z,16.40
2024-02-16T02:28:25.807Z,16.41
2024-02-16T02:30:52.155Z,16.74
2024-02-16T02:33:18.721Z,16.82
2024-02-16T02:35:45.327Z,16.78
2024-02-16T02:38:11.793Z,16.66
2024-02-16T02:40:38.481Z,16.90
2024-02-16T02:43:04.963Z,16.92
2024-02-16T02:45:31.973Z,16.96
2024-02-16T02:47:58.484Z,16.86
2024-02-16T02:50:25.275Z,16.41
2024-02-16T02:52:51.636Z,16.87
2024-02-16T02:55:17.998Z,16.66
2024-02-16T02:57:44.398Z,16.57
2024-02-16T03:00:14.771Z,16.27
2024-02-16T03:02:41.677Z,16.07
2024-02-16T03:05:08.391Z,16.10
2024-02-16T03:07:35.559Z,16.25
2024-02-16T03:10:04.162Z,16.08
2024-02-16T03:12:30.636Z,16.24
2024-02-16T03:14:57.149Z,15.66
2024-02-16T03:17:23.506Z,15.83
2024-02-16T03:19:49.993Z,15.91
2024-02-16T03:22:16.449Z,16.31
2024-02-16T03:24:42.905Z,16.36
2024-02-16T03:27:09.262Z,16.22
2024-02-16T03:29:35.697Z,16.32
2024-02-16T03:32:03.219Z,16.43
2024-02-16T03:34:29.627Z,16.40
2024-02-16T03:36:56.111Z,16.23
2024-02-16T03:39:22.509Z,15.96
2024-02-16T03:41:49.801Z,16.02
2024-02-16T03:44:19.076Z,16.41
2024-02-16T03:46:45.404Z,16.61
2024-02-16T03:49:12.002Z,16.37
2024-02-16T03:51:38.586Z,16.37
2024-02-16T03:54:05.500Z,16.77
2024-02-16T03:56:32.005Z,16.60
2024-02-16T03:58:58.690Z,16.61
2024-02-16T04:01:25.062Z,16.67
2024-02-16T04:03:53.138Z,16.44
2024-02-16T04:06:20.631Z,16.36
2024-02-16T04:08:46.984Z,16.20
2024-02-16T04:11:14.841Z,16.28
2024-02-16T04:13:41.264Z,16.56
2024-02-16T04:16:07.745Z,16.45
2024-02-16T04:18:34.186Z,16.20
2024-02-16T04:21:00.617Z,16.47
2024-02-16T04:23:27.000Z,16.16
2024-02-16T04:25:53.389Z,16.31
2024-02-16T04:28:19.709Z,16.25
2024-02-16T04:30:46.039Z,16.02
2024-02-16T04:33:12.503Z,15.96
2024-02-16T04:35:39.281Z,16.27
2024-02-16T04:38:05.746Z,16.32
2024-02-16T04:40:36.545Z,16.56
2024-02-16T04:43:02.906Z,16.50
2024-02-16T04:45:31.365Z,16.63
2024-02-16T04:47:57.915Z,16.23
2024-02-16T04:50:24.718Z,16.38
2024-02-16T04:52:51.121Z,16.22
2024-02-16T04:55:17.733Z,16.26
2024-02-16T04:57:44.059Z,16.19
2024-02-16T05:00:11.076Z,16.39
2024-02-16T05:02:37.617Z,16.28
2024-02-16T05:05:04.926Z,16.26
2024-02-16T05:07:32.564Z,16.43
2024-02-16T05:09:59.642Z,15.94
2024-02-16T05:12:27.362Z,16.18
2024-02-16T05:14:53.963Z,16.15
2024-02-16T05:17:21.502Z,16.19
2024-02-16T05:19:47.949Z,16.26
2024-02-16T05:22:15.430Z,16.10
2024-02-16T05:24:41.807Z,16.31
2024-02-16T05:27:08.204Z,16.04
2024-02-16T05:29:34.846Z,16.22
2024-02-16T05:32:01.198Z,16.37
2024-02-16T05:34:27.722Z,15.96
2024-02-16T05:36:54.268Z,15.98
2024-02-16T05:39:43.532Z,16.39
2024-02-16T05:42:09.933Z,16.31
2024-02-16T05:44:36.275Z,15.93
2024-02-16T05:47:04.284Z,15.84
2024-02-16T05:49:31.384Z,16.10
2024-02-16T05:52:16.581Z,15.94
2024-02-16T05:54:42.931Z,15.96
2024-02-16T05:57:10.235Z,15.78
2024-02-16T05:59:37.304Z,15.83
2024-02-16T06:02:03.878Z,15.91
2024-02-16T06:04:30.251Z,15.90
2024-02-16T06:06:56.747Z,16.04
2024-02-16T06:09:23.211Z,16.41
2024-02-16T06:11:49.920Z,16.05
2024-02-16T06:14:19.562Z,15.79
2024-02-16T06:16:47.257Z,15.88
2024-02-16T06:19:13.784Z,15.76
2024-02-16T06:21:40.292Z,15.71
2024-02-16T06:24:06.752Z,15.81
2024-02-16T06:26:33.103Z,16.30
2024-02-16T06:28:59.459Z,15.64
2024-02-16T06:31:25.799Z,16.01
2024-02-16T06:33:52.301Z,15.99
2024-02-16T06:36:18.722Z,15.94
2024-02-16T06:38:45.185Z,15.66
2024-02-16T06:41:13.579Z,15.98
2024-02-16T06:43:39.916Z,15.94
2024-02-16T06:46:06.246Z,15.45
2024-02-16T06:48:32.699Z,15.92
2024-02-16T06:50:59.185Z,15.48
2024-02-16T06:53:25.941Z,15.96
2024-02-16T06:55:52.550Z,15.52
2024-02-16T06:58:18.893Z,15.48
2024-02-16T07:00:45.394Z,15.62
2024-02-16T07:03:11.820Z,15.52
2024-02-16T07:05:38.286Z,15.37
2024-02-16T07:08:07.493Z,15.26
2024-02-16T07:10:34.559Z,15.81
2024-02-16T07:13:01.670Z,15.40
2024-02-16T07:15:28.197Z,15.66
2024-02-16T07:17:54.810Z,15.95
2024-02-16T07:20:21.229Z,15.93
2024-02-16T07:22:47.869Z,15.64
2024-02-16T07:25:14.340Z,15.68
2024-02-16T07:27:40.732Z,15.43
2024-02-16T07:30:07.677Z,15.92
2024-02-16T07:32:34.191Z,15.82
2024-02-16T07:35:00.874Z,15.86
2024-02-16T07:37:27.894Z,15.70
2024-02-16T07:39:54.218Z,15.97
2024-02-16T07:42:21.794Z,15.96
2024-02-16T07:44:48.269Z,16.45
2024-02-16T07:47:14.614Z,15.84
2024-02-16T07:49:41.219Z,16.10
2024-02-16T07:52:07.734Z,16.33
2024-02-16T07:54:34.227Z,15.83
2024-02-16T07:57:01.932Z,15.52
2024-02-16T07:59:28.640Z,15.70
2024-02-16T08:01:54.982Z,16.25
2024-02-16T08:04:21.334Z,15.57
2024-02-16T08:06:47.917Z,15.90
2024-02-16T08:09:15.288Z,15.90
2024-02-16T08:11:41.748Z,15.77
2024-02-16T08:14:09.265Z,15.48
2024-02-16T08:16:35.682Z,15.78
2024-02-16T08:19:02.117Z,15.76
2024-02-16T08:21:28.624Z,15.61
2024-02-16T08:23:55.063Z,15.84
2024-02-16T08:26:22.464Z,16.11
2024-02-16T08:28:48.898Z,16.21
2024-02-16T08:31:19.239Z,16.41
2024-02-16T08:33:46.413Z,16.41
2024-02-16T08:36:12.956Z,16.20
2024-02-16T08:38:39.397Z,16.43
2024-02-16T08:41:05.945Z,16.67
2024-02-16T08:43:32.339Z,16.52
2024-02-16T08:45:58.706Z,16.18
2024-02-16T08:48:26.038Z,16.43
2024-02-16T08:50:52.818Z,16.62
2024-02-16T08:53:19.238Z,16.77
2024-02-16T08:55:45.932Z,16.19
2024-02-16T08:58:13.751Z,16.42
2024-02-16T09:00:40.513Z,16.87
2024-02-16T09:03:07.518Z,17.02
2024-02-16T09:05:34.114Z,17.08
2024-02-16T09:08:00.484Z,16.81
2024-02-16T09:10:26.823Z,16.81
2024-02-16T09:12:53.165Z,17.01
2024-02-16T09:15:19.582Z,17.62
2024-02-16T09:17:46.009Z,16.79
2024-02-16T09:20:12.894Z,16.65
2024-02-16T09:22:46.779Z,17.48
2024-02-16T09:25:15.380Z,17.36
2024-02-16T09:27:45.850Z,17.36
2024-02-16T09:30:13.714Z,17.26
2024-02-16T09:32:41.287Z,17.15
2024-02-16T09:35:10.728Z,16.56
2024-02-16T09:37:38.143Z,16.68
2024-02-16T09:40:06.282Z,16.52
2024-02-16T09:42:34.099Z,17.18
2024-02-16T09:45:00.534Z,16.87
2024-02-16T09:47:29.962Z,16.99
2024-02-16T09:49:56.681Z,16.41
2024-02-16T09:52:23.374Z,16.74
2024-02-16T09:54:49.772Z,16.77
2024-02-16T09:57:19.955Z,17.31
2024-02-16T09:59:46.705Z,17.93
2024-02-16T10:02:13.071Z,17.91
2024-02-16T10:04:39.427Z,17.16
2024-02-16T10:07:11.788Z,16.80
2024-02-16T10:09:41.142Z,16.67
2024-02-16T10:12:08.352Z,17.35
2024-02-16T10:14:34.866Z,17.80
2024-02-16T10:17:03.731Z,17.26
2024-02-16T10:19:40.844Z,17.21
2024-02-16T10:22:12.005Z,17.52
2024-02-16T10:24:43.652Z,17.03
2024-02-16T10:27:17.563Z,17.68
2024-02-16T10:29:45.521Z,17.94
2024-02-16T10:32:12.578Z,17.81
2024-02-16T10:34:40.494Z,17.78
2024-02-16T10:37:07.412Z,17.64
2024-02-16T10:39:34.971Z,17.15
2024-02-16T10:42:02.865Z,17.37
2024-02-16T10:44:29.299Z,17.59
2024-02-16T10:46:59.151Z,17.02
2024-02-16T10:49:25.841Z,16.87
2024-02-16T10:51:58.218Z,17.27
2024-02-16T10:54:34.750Z,17.33
2024-02-16T10:57:01.503Z,17.03
2024-02-16T10:59:30.148Z,17.13
2024-02-16T11:02:01.385Z,16.81
2024-02-16T11:04:40.281Z,17.25
2024-02-16T11:07:16.671Z,16.85
2024-02-16T11:09:44.624Z,16.55
2024-02-16T11:12:14.097Z,16.72
2024-02-16T11:14:45.362Z,17.05
2024-02-16T11:17:13.062Z,17.38
2024-02-16T11:19:44.245Z,17.38
2024-02-16T11:22:12.756Z,17.58
2024-02-16T11:24:45.319Z,17.68
2024-02-16T11:27:12.777Z,17.81
2024-02-16T11:29:39.818Z,17.34
2024-02-16T11:32:07.032Z,17.60
2024-02-16T11:34:34.731Z,17.42
2024-02-16T11:37:02.556Z,17.64
2024-02-16T11:39:34.382Z,17.68
2024-02-16T11:42:05.980Z,17.90
2024-02-16T11:44:33.466Z,18.26
2024-02-16T11:47:01.074Z,18.62
2024-02-16T11:49:29.534Z,18.49
2024-02-16T11:51:56.486Z,18.51
2024-02-16T11:54:23.118Z,18.33
2024-02-16T11:56:53.509Z,18.37
2024-02-16T11:59:20.391Z,18.53
2024-02-16T12:01:55.156Z,18.45
2024-02-16T12:04:29.709Z,18.59
2024-02-16T12:07:04.429Z,18.24
2024-02-16T12:09:35.732Z,18.21
2024-02-16T12:12:02.914Z,18.60
2024-02-16T12:14:29.330Z,18.41
2024-02-16T12:16:59.484Z,18.54
2024-02-16T12:19:26.308Z,18.32
2024-02-16T12:21:53.580Z,18.72
2024-02-16T12:24:21.283Z,18.42
2024-02-16T12:26:47.918Z,18.07
2024-02-16T12:29:14.574Z,19.12
2024-02-16T12:31:42.330Z,19.23
2024-02-16T12:34:09.225Z,19.28
2024-02-16T12:36:36.342Z,19.40
2024-02-16T12:39:07.244Z,18.80
2024-02-16T12:41:35.134Z,18.74
2024-02-16T12:44:01.537Z,18.40
2024-02-16T12:46:29.184Z,17.55
2024-02-16T12:48:55.987Z,18.52
2024-02-16T12:51:22.580Z,18.88
2024-02-16T12:53:49.032Z,18.97
2024-02-16T12:56:15.460Z,18.78
2024-02-16T12:58:41.968Z,19.54
2024-02-16T13:01:11.840Z,18.42
2024-02-16T13:03:46.158Z,18.85
2024-02-16T13:06:13.005Z,18.78
2024-02-16T13:08:39.650Z,18.49
2024-02-16T13:11:06.153Z,18.57
2024-02-16T13:13:33.268Z,18.65
2024-02-16T13:16:00.248Z,18.78
2024-02-16T13:18:27.049Z,18.67
2024-02-16T13:20:53.523Z,19.07
2024-02-16T13:23:19.923Z,19.06
2024-02-16T13:25:46.609Z,18.76
2024-02-16T13:28:12.941Z,18.94
2024-02-16T13:30:39.477Z,19.09
2024-02-16T13:33:06.563Z,18.94
2024-02-16T13:35:33.019Z,19.41
2024-02-16T13:38:00.426Z,19.00
2024-02-16T13:40:26.744Z,18.46
2024-02-16T13:42:56.517Z,18.73
2024-02-16T13:45:22.906Z,18.72
2024-02-16T13:47:49.449Z,18.53
2024-02-16T13:50:16.776Z,19.21
2024-02-16T13:52:43.192Z,18.56
2024-02-16T13:55:09.674Z,18.69
2024-02-16T13:57:36.939Z,18.51
2024-02-16T14:00:03.802Z,18.40
2024-02-16T14:02:30.709Z,18.23
2024-02-16T14:04:57.714Z,18.70
2024-02-16T14:07:24.315Z,19.12
2024-02-16T14:09:50.721Z,18.30
2024-02-16T14:12:17.119Z,18.64
2024-02-16T14:14:43.490Z,18.54
2024-02-16T14:17:09.809Z,18.96
2024-02-16T14:19:38.737Z,18.74
2024-02-16T14:22:07.974Z,18.75
2024-02-16T14:24:34.404Z,17.90
2024-02-16T14:27:02.190Z,18.73
2024-02-16T14:29:30.057Z,18.20
2024-02-16T14:31:56.991Z,18.23
2024-02-16T14:34:23.484Z,17.78
2024-02-16T14:36:49.972Z,17.63
2024-02-16T14:39:17.758Z,18.08
2024-02-16T14:41:44.196Z,17.51
2024-02-16T14:44:11.952Z,18.16
2024-02-16T14:46:38.297Z,17.84
2024-02-16T14:49:11.660Z,17.25
2024-02-16T14:51:43.121Z,17.42
2024-02-16T14:54:10.539Z,17.12
2024-02-16T14:56:37.121Z,17.69
2024-02-16T14:59:03.461Z,17.29
2024-02-16T15:01:29.851Z,17.19
2024-02-16T15:03:56.337Z,17.22
2024-02-16T15:06:22.779Z,17.18
2024-02-16T15:08:49.154Z,17.29
2024-02-16T15:11:17.482Z,17.08
2024-02-16T15:13:44.081Z,17.33
2024-02-16T15:16:10.408Z,16.98
2024-02-16T15:18:36.931Z,16.68
2024-02-16T15:21:03.721Z,16.73
2024-02-16T15:23:30.126Z,17.53
2024-02-16T15:25:56.496Z,16.80
2024-02-16T15:28:22.876Z,15.87
2024-02-16T15:30:50.094Z,16.37
2024-02-16T15:33:17.179Z,15.90
2024-02-16T15:35:43.563Z,15.72
2024-02-16T15:38:09.899Z,15.85
2024-02-16T15:40:37.016Z,15.58
2024-02-16T15:43:05.176Z,15.20
2024-02-16T15:45:31.974Z,15.47
2024-02-16T15:47:58.839Z,14.52
2024-02-16T15:50:31.086Z,14.33
2024-02-16T15:52:57.613Z,13.66
2024-02-16T15:55:23.998Z,13.92
2024-02-16T15:57:50.422Z,14.79
2024-02-16T16:00:17.202Z,14.55
2024-02-16T16:02:43.542Z,14.78
2024-02-16T16:05:09.986Z,14.47
2024-02-16T16:07:36.428Z,14.47
2024-02-16T16:10:03.100Z,14.33
2024-02-16T16:12:29.742Z,13.98
2024-02-16T16:14:56.215Z,14.80
2024-02-16T16:17:22.625Z,15.21
2024-02-16T16:19:49.447Z,15.07
2024-02-16T16:22:15.827Z,14.85
2024-02-16T16:24:42.351Z,13.87
2024-02-16T16:27:08.916Z,15.07
2024-02-16T16:29:35.521Z,14.61
2024-02-16T16:32:06.302Z,15.45
2024-02-16T16:34:33.183Z,15.43
2024-02-16T16:36:59.659Z,15.18
2024-02-16T16:39:26.126Z,15.63
2024-02-16T16:41:55.795Z,14.26
2024-02-16T16:44:23.755Z,14.50
2024-02-16T16:46:50.510Z,14.03
2024-02-16T16:49:20.277Z,15.04
2024-02-16T16:51:47.206Z,14.94
2024-02-16T16:54:13.647Z,15.60
2024-02-16T16:56:40.082Z,15.38
2024-02-16T16:59:06.602Z,15.54
2024-02-16T17:01:33.092Z,14.56
2024-02-16T17:04:01.154Z,14.67
2024-02-16T17:06:28.796Z,15.61
2024-02-16T17:08:55.373Z,15.02
2024-02-16T17:11:24.001Z,15.58
2024-02-16T17:13:50.698Z,14.79
2024-02-16T17:16:17.217Z,15.62
2024-02-16T17:18:43.827Z,15.03
2024-02-16T17:21:10.537Z,14.60
2024-02-16T17:23:36.922Z,15.05
2024-02-16T17:26:04.141Z,15.11
2024-02-16T17:28:30.715Z,14.43
2024-02-16T17:30:57.047Z,14.51
2024-02-16T17:33:23.651Z,14.84
2024-02-16T17:35:50.365Z,13.57
2024-02-16T17:38:16.857Z,13.82
2024-02-16T17:40:43.372Z,14.41
2024-02-16T17:43:09.923Z,13.57
2024-02-16T17:45:39.372Z,14.30
2024-02-16T17:48:06.103Z,14.49
2024-02-16T17:50:33.381Z,14.60
2024-02-16T17:52:59.719Z,14.49
2024-02-16T17:55:26.044Z,14.15
2024-02-16T17:57:52.843Z,14.54
2024-02-16T18:00:19.616Z,14.49
2024-02-16T18:02:48.316Z,14.25
2024-02-16T18:05:16.335Z,14.74
2024-02-16T18:07:42.781Z,14.59
2024-02-16T18:10:09.642Z,14.22
2024-02-16T18:12:36.444Z,14.10
2024-02-16T18:15:04.971Z,15.19
2024-02-16T18:17:31.597Z,14.92
2024-02-16T18:19:58.076Z,14.41
2024-02-16T18:22:24.835Z,14.54
2024-02-16T18:24:51.349Z,14.62
2024-02-16T18:27:20.929Z,14.05
2024-02-16T18:29:47.485Z,14.31
2024-02-16T18:32:13.854Z,14.14
2024-02-16T18:34:40.687Z,13.64
2024-02-16T18:37:07.250Z,13.17
2024-02-16T18:39:34.532Z,13.62
2024-02-16T18:42:01.247Z,13.78
2024-02-16T18:44:27.725Z,13.72
2024-02-16T18:46:54.104Z,13.53
2024-02-16T18:49:21.638Z,14.04
2024-02-16T18:51:48.315Z,13.96
2024-02-16T18:54:14.845Z,14.07
2024-02-16T18:56:41.609Z,14.88
2024-02-16T18:59:09.286Z,14.32
2024-02-16T19:01:36.120Z,14.52
2024-02-16T19:04:06.240Z,14.17
2024-02-16T19:06:33.126Z,14.03
2024-02-16T19:08:59.870Z,13.61
2024-02-16T19:11:27.253Z,13.91
2024-02-16T19:13:53.879Z,13.20
2024-02-16T19:16:20.286Z,12.93
2024-02-16T19:18:47.174Z,13.28
2024-02-16T19:21:13.587Z,13.28
2024-02-16T19:23:40.111Z,13.71
2024-02-16T19:26:08.998Z,13.96
2024-02-16T19:28:39.246Z,14.31
2024-02-16T19:31:07.792Z,14.98
2024-02-16T19:33:34.898Z,13.74
2024-02-16T19:36:01.901Z,14.01
2024-02-16T19:38:28.466Z,14.80
2024-02-16T19:40:54.881Z,14.16
2024-02-16T19:43:21.723Z,14.46
2024-02-16T19:45:48.113Z,14.66
2024-02-16T19:48:14.682Z,13.16
2024-02-16T19:50:41.139Z,12.96
2024-02-16T19:53:08.824Z,13.34
2024-02-16T19:55:35.175Z,13.12
2024-02-16T19:58:01.561Z,13.71
2024-02-16T20:00:30.148Z,12.69
2024-02-16T20:02:57.259Z,12.04
2024-02-16T20:05:25.255Z,12.38
2024-02-16T20:07:53.122Z,12.10
2024-02-16T20:10:19.978Z,12.76
2024-02-16T20:12:46.399Z,12.45
2024-02-16T20:15:12.914Z,13.38
2024-02-16T20:17:39.665Z,13.39
2024-02-16T20:20:06.983Z,13.11
2024-02-16T20:22:33.597Z,12.59
2024-02-16T20:25:00.580Z,12.66
2024-02-16T20:27:27.431Z,12.42
2024-02-16T20:29:53.852Z,12.09
2024-02-16T20:32:22.633Z,12.18
2024-02-16T20:34:49.511Z,12.82
2024-02-16T20:37:15.963Z,11.96
2024-02-16T20:39:42.503Z,11.83
2024-02-16T20:42:08.951Z,12.29
2024-02-16T20:44:35.463Z,12.78
2024-02-16T20:47:02.040Z,12.55
2024-02-16T20:49:28.477Z,12.82
2024-02-16T20:51:55.250Z,12.61
2024-02-16T20:54:24.992Z,12.59
2024-02-16T20:56:51.536Z,12.06
2024-02-16T20:59:17.941Z,11.68
2024-02-16T21:01:44.343Z,12.33
2024-02-16T21:04:10.799Z,12.06
2024-02-16T21:06:41.922Z,12.78
2024-02-16T21:09:11.485Z,12.22
2024-02-16T21:11:38.046Z,12.50
2024-02-16T21:14:04.460Z,12.59
2024-02-16T21:16:30.895Z,13.21
2024-02-16T21:18:57.313Z,13.17
2024-02-16T21:21:24.379Z,13.52
2024-02-16T21:23:50.849Z,13.75
2024-02-16T21:26:17.448Z,13.65
2024-02-16T21:28:43.837Z,13.75
2024-02-16T21:31:10.298Z,12.99
2024-02-16T21:33:38.895Z,13.29
2024-02-16T21:36:10.962Z,13.77
2024-02-16T21:38:37.842Z,13.29
2024-02-16T21:41:07.568Z,13.40
2024-02-16T21:43:36.852Z,12.57
2024-02-16T21:46:04.016Z,12.41
2024-02-16T21:48:36.553Z,12.83
2024-02-16T21:51:06.903Z,13.05
2024-02-16T21:53:33.388Z,13.54
2024-02-16T21:55:59.836Z,13.90
2024-02-16T21:58:26.253Z,13.90
2024-02-16T22:00:52.877Z,12.94
2024-02-16T22:03:19.437Z,13.50
2024-02-16T22:05:48.265Z,13.59
2024-02-16T22:08:14.895Z,12.96
2024-02-16T22:10:41.359Z,13.06
2024-02-16T22:13:07.723Z,13.21
2024-02-16T22:15:34.126Z,13.57
2024-02-16T22:18:00.702Z,13.63
2024-02-16T22:20:27.169Z,13.04
2024-02-16T22:22:53.527Z,13.10
2024-02-16T22:25:19.885Z,12.93
2024-02-16T22:27:46.300Z,13.15
2024-02-16T22:30:13.211Z,12.40
2024-02-16T22:32:39.618Z,12.57
2024-02-16T22:35:06.487Z,12.01
2024-02-16T22:37:33.031Z,11.68
2024-02-16T22:39:59.436Z,11.82
2024-02-16T22:42:25.829Z,12.00
2024-02-16T22:44:52.227Z,12.17
2024-02-16T22:47:18.656Z,11.66
2024-02-16T22:49:45.032Z,11.79
2024-02-16T22:52:11.473Z,11.69
2024-02-16T22:54:37.947Z,11.76
2024-02-16T22:57:07.802Z,12.12
2024-02-16T22:59:34.242Z,11.57
2024-02-16T23:02:01.878Z,11.23
2024-02-16T23:04:28.368Z,11.60
2024-02-16T23:06:55.008Z,11.48
2024-02-16T23:09:23.785Z,12.61
2024-02-16T23:11:50.989Z,12.60
2024-02-16T23:14:19.945Z,11.52
2024-02-16T23:16:47.218Z,11.88
2024-02-16T23:19:13.748Z,12.07
2024-02-16T23:21:40.389Z,11.68
2024-02-16T23:24:07.887Z,11.89
2024-02-16T23:26:34.532Z,11.32
2024-02-16T23:29:00.883Z,11.55
2024-02-16T23:31:27.254Z,10.97
2024-02-16T23:33:55.211Z,11.88
2024-02-16T23:36:22.332Z,11.21
2024-02-16T23:38:48.795Z,11.11
2024-02-16T23:41:15.165Z,11.25
2024-02-16T23:43:41.532Z,11.34
2024-02-16T23:46:09.637Z,10.97
2024-02-16T23:48:36.205Z,10.99
2024-02-16T23:51:03.389Z,11.46
2024-02-16T23:53:29.960Z,11.18
2024-02-16T23:55:56.939Z,11.70
2024-02-16T23:58:23.764Z,11.90
